Time;durP1;ratioP1;P1;durP2;ratioP2;P2;SDS_P1;SDS_P2;PMS_P1;PMS_P2;Temp;Humidity;BMP_temperature;BMP_pressure;BME280_temperature;BME280_humidity;BME280_pressure;Samples;Min_cycle;Max_cycle;Signal;HPM_P1;HPM_P2
2023/03/06 00:00:48;;;;;;;17.85;13.48;;;;;;;;;;4467379;32;19944;-68
2023/03/06 00:03:14;;;;;;;16.00;12.90;;;;;;;;;;4457010;32;20578;-68
2023/03/06 00:05:39;;;;;;;;;;;;;;;;;;4454120;32;20029;-68
2023/03/06 00:08:04;;;;;;;19.17;12.52;;;;;;;;;;4453187;32;20364;-68
2023/03/06 00:10:29;;;;;;;;;;;;;;;;;;4452246;32;20052;-69
2023/03/06 00:12:56;;;;;;;15.80;12.18;;;;;;;;;;4453641;32;19962;-69
2023/03/06 00:15:22;;;;;;;19.17;11.20;;;;;;;;;;4453312;32;20030;-69
2023/03/06 00:17:48;;;;;;;17.92;10.77;;;;;;;;;;4452187;32;20091;-68
2023/03/06 00:20:13;;;;;;;;;;;;;;;;;;4453734;32;20323;-68
2023/03/06 00:22:38;;;;;;;16.17;10.23;;;;;;;;;;4452236;32;19937;-68
2023/03/06 00:25:03;;;;;;;;;;;;;;;;;;4452289;32;20229;-68
2023/03/06 00:27:29;;;;;;;14.52;8.52;;;;;;;;;;4437864;32;19952;-69
2023/03/06 00:29:54;;;;;;;;;;;;;;;;;;4452629;32;20128;-69
2023/03/06 00:32:19;;;;;;;11.57;8.25;;;;;;;;;;4456626;32;19936;-69
2023/03/06 00:34:47;;;;;;;13.57;9.20;;;;;;;;;;4467512;32;20406;-69
2023/03/06 00:37:12;;;;;;;13.62;9.00;;;;;;;;;;4467441;32;20099;-69
2023/03/06 00:39:37;;;;;;;;;;;;;;;;;;4469192;32;20111;-69
2023/03/06 00:42:02;;;;;;;13.48;9.52;;;;;;;;;;4466882;32;19975;-69
2023/03/06 00:44:27;;;;;;;;;;;;;;;;;;4468418;32;20124;-69
2023/03/06 00:46:53;;;;;;;13.05;9.57;;;;;;;;;;4468058;32;19968;-69
2023/03/06 00:49:18;;;;;;;20.30;11.30;;;;;;;;;;4468121;32;20481;-69
2023/03/06 00:51:43;;;;;;;;;;;;;;;;;;4455103;32;20032;-69
2023/03/06 00:54:08;;;;;;;13.38;9.24;;;;;;;;;;4468817;32;19976;-69
2023/03/06 00:56:33;;;;;;;;;;;;;;;;;;4467259;32;20030;-69
2023/03/06 00:58:59;;;;;;;13.80;9.10;;;;;;;;;;4468453;32;19940;-69
2023/03/06 01:01:24;;;;;;;;;;;;;;;;;;4466841;32;20119;-69
2023/03/06 01:03:49;;;;;;;10.88;8.32;;;;;;;;;;4464907;32;19932;-68
2023/03/06 01:06:14;;;;;;;;;;;;;;;;;;4444961;32;20171;-69
2023/03/06 01:08:39;;;;;;;10.23;8.00;;;;;;;;;;4468447;32;19935;-68
2023/03/06 01:11:04;;;;;;;;;;;;;;;;;;4468210;32;20052;-68
2023/03/06 01:13:29;;;;;;;11.60;6.97;;;;;;;;;;4482659;32;20275;-68
2023/03/06 01:16:03;;;;;;;10.68;7.68;;;;;;;;;;4482844;32;20077;-68
2023/03/06 01:18:28;;;;;;;14.02;8.85;;;;;;;;;;4469846;32;20032;-68
2023/03/06 01:20:53;;;;;;;;;;;;;;;;;;4468358;32;20063;-68
2023/03/06 01:23:19;;;;;;;10.63;7.40;;;;;;;;;;4482748;32;19940;-68
2023/03/06 01:25:44;;;;;;;;;;;;;;;;;;4484160;32;20131;-68
2023/03/06 01:28:09;;;;;;;10.90;6.75;;;;;;;;;;4483702;32;19955;-68
2023/03/06 01:30:34;;;;;;;12.70;6.78;;;;;;;;;;4482310;32;20070;-68
2023/03/06 01:32:59;;;;;;;;;;;;;;;;;;4484114;32;20028;-68
2023/03/06 01:35:25;;;;;;;10.63;6.72;;;;;;;;;;4484330;32;20207;-68
2023/03/06 01:37:50;;;;;;;;;;;;;;;;;;4483429;32;20048;-68
2023/03/06 01:40:15;;;;;;;7.80;5.85;;;;;;;;;;4482462;32;19985;-68
2023/03/06 01:42:40;;;;;;;;;;;;;;;;;;4485384;32;20149;-69
2023/03/06 01:45:05;;;;;;;10.18;5.45;;;;;;;;;;4485915;32;19979;-68
2023/03/06 01:47:30;;;;;;;;;;;;;;;;;;4482850;32;20154;-68
2023/03/06 01:49:57;;;;;;;8.48;5.43;;;;;;;;;;4481222;32;20004;-68
2023/03/06 01:52:24;;;;;;;6.68;5.18;;;;;;;;;;4454844;32;20200;-68
2023/03/06 01:54:52;;;;;;;7.47;5.32;;;;;;;;;;4452632;32;20071;-69
2023/03/06 01:57:26;;;;;;;9.02;4.85;;;;;;;;;;4452729;32;20029;-69
2023/03/06 01:59:55;;;;;;;8.25;6.07;;;;;;;;;;4455645;32;20037;-68
2023/03/06 02:02:20;;;;;;;11.98;6.43;;;;;;;;;;4439788;32;20024;-68
2023/03/06 02:04:45;;;;;;;;;;;;;;;;;;4456426;32;20456;-68
2023/03/06 02:07:13;;;;;;;10.35;7.50;;;;;;;;;;4447923;32;19936;-69
2023/03/06 02:09:38;;;;;;;10.98;8.75;;;;;;;;;;4453961;32;20371;-69
2023/03/06 02:12:03;;;;;;;;;;;;;;;;;;4455543;32;20030;-68
2023/03/06 02:14:29;;;;;;;13.85;8.65;;;;;;;;;;4439461;32;19959;-68
2023/03/06 02:16:54;;;;;;;14.57;10.25;;;;;;;;;;4440903;32;20021;-68
2023/03/06 02:19:19;;;;;;;14.20;9.85;;;;;;;;;;4455377;32;20017;-67
2023/03/06 02:21:44;;;;;;;12.00;9.13;;;;;;;;;;4463522;32;20059;-68
2023/03/06 02:24:09;;;;;;;;;;;;;;;;;;4470500;32;20096;-68
2023/03/06 02:26:35;;;;;;;17.23;10.57;;;;;;;;;;4470865;32;19954;-69
2023/03/06 02:29:00;;;;;;;12.82;8.63;;;;;;;;;;4469418;32;20021;-68
2023/03/06 02:31:25;;;;;;;;;;;;;;;;;;4470889;32;20067;-68
2023/03/06 02:34:09;;;;;;;11.10;8.10;;;;;;;;;;4470458;32;19936;-68
2023/03/06 02:36:41;;;;;;;12.02;7.10;;;;;;;;;;4468733;32;20124;-67
2023/03/06 02:39:06;;;;;;;12.93;6.60;;;;;;;;;;4470730;32;20025;-68
2023/03/06 02:41:31;;;;;;;;;;;;;;;;;;4471091;32;20056;-68
2023/03/06 02:43:57;;;;;;;12.58;7.06;;;;;;;;;;4469193;32;19977;-68
2023/03/06 02:46:22;;;;;;;;;;;;;;;;;;4470498;32;20120;-68
2023/03/06 02:48:47;;;;;;;9.57;5.72;;;;;;;;;;4469217;32;19988;-68
2023/03/06 02:51:12;;;;;;;;;;;;;;;;;;4462966;32;20232;-69
2023/03/06 02:53:37;;;;;;;10.15;5.18;;;;;;;;;;4455230;32;19937;-69
2023/03/06 02:56:02;;;;;;;6.32;4.47;;;;;;;;;;4453969;32;20093;-68
2023/03/06 02:58:27;;;;;;;;;;;;;;;;;;4439137;32;20418;-67
2023/03/06 03:00:53;;;;;;;7.85;5.03;;;;;;;;;;4453498;32;20265;-68
2023/03/06 03:03:18;;;;;;;7.93;4.47;;;;;;;;;;4453207;32;20018;-68
2023/03/06 03:05:43;;;;;;;;;;;;;;;;;;4439974;32;20135;-68
2023/03/06 03:08:08;;;;;;;6.68;3.65;;;;;;;;;;4455069;32;19952;-68
2023/03/06 03:10:33;;;;;;;10.50;4.32;;;;;;;;;;4440221;32;20354;-67
2023/03/06 03:12:58;;;;;;;;;;;;;;;;;;4454776;32;20052;-67
2023/03/06 03:15:24;;;;;;;6.10;3.50;;;;;;;;;;4453369;32;19932;-68
2023/03/06 03:17:49;;;;;;;;;;;;;;;;;;4454423;32;20129;-67
2023/03/06 03:20:16;;;;;;;4.35;3.42;;;;;;;;;;4454264;32;19940;-67
2023/03/06 03:22:41;;;;;;;5.37;3.85;;;;;;;;;;4464821;32;20498;-67
2023/03/06 03:25:06;;;;;;;;;;;;;;;;;;4454230;32;20026;-67
2023/03/06 03:27:31;;;;;;;6.68;3.17;;;;;;;;;;4440289;32;19947;-68
2023/03/06 03:29:57;;;;;;;;;;;;;;;;;;4453014;32;20400;-67
2023/03/06 03:32:22;;;;;;;8.52;4.00;;;;;;;;;;4439720;32;19944;-68
2023/03/06 03:34:47;;;;;;;;;;;;;;;;;;4452595;32;20133;-68
2023/03/06 03:37:12;;;;;;;5.85;4.25;;;;;;;;;;4452823;32;20148;-68
2023/03/06 03:39:37;;;;;;;;;;;;;;;;;;4452836;32;20117;-68
2023/03/06 03:42:03;;;;;;;9.65;4.28;;;;;;;;;;4454051;32;20018;-68
2023/03/06 03:44:28;;;;;;;;;;;;;;;;;;4452941;32;20121;-68
2023/03/06 03:46:53;;;;;;;6.18;4.12;;;;;;;;;;4453742;32;20301;-68
2023/03/06 03:49:18;;;;;;;;;;;;;;;;;;4452167;32;20128;-68
2023/03/06 03:51:43;;;;;;;5.50;3.42;;;;;;;;;;4462817;32;19979;-68
2023/03/06 03:54:08;;;;;;;;;;;;;;;;;;4455405;32;20168;-68
2023/03/06 03:56:34;;;;;;;8.88;3.94;;;;;;;;;;4469824;32;19933;-68
2023/03/06 03:58:59;;;;;;;;;;;;;;;;;;4455202;32;20040;-68
2023/03/06 04:01:24;;;;;;;6.32;4.28;;;;;;;;;;4467730;32;19937;-68
2023/03/06 04:03:49;;;;;;;6.00;3.28;;;;;;;;;;4468804;32;20016;-67
2023/03/06 04:06:15;;;;;;;;;;;;;;;;;;4469587;32;20080;-69
2023/03/06 04:08:40;;;;;;;7.28;3.50;;;;;;;;;;4469043;32;20335;-68
2023/03/06 04:11:05;;;;;;;;;;;;;;;;;;4468739;32;20116;-68
2023/03/06 04:13:30;;;;;;;5.25;3.28;;;;;;;;;;4467871;32;19936;-68
2023/03/06 04:15:55;;;;;;;7.43;3.80;;;;;;;;;;4469062;32;20080;-68
2023/03/06 04:18:20;;;;;;;;;;;;;;;;;;4469559;32;20368;-69
2023/03/06 04:20:46;;;;;;;5.45;3.47;;;;;;;;;;4463887;32;19937;-67
2023/03/06 04:23:11;;;;;;;;;;;;;;;;;;4452387;32;20475;-68
2023/03/06 04:25:37;;;;;;;4.70;3.35;;;;;;;;;;4452219;32;20294;-67
2023/03/06 04:28:02;;;;;;;;;;;;;;;;;;4453663;32;20156;-68
2023/03/06 04:30:27;;;;;;;4.72;3.80;;;;;;;;;;4452311;32;20266;-68
2023/03/06 04:32:52;;;;;;;5.62;3.92;;;;;;;;;;4452010;32;20056;-69
2023/03/06 04:35:17;;;;;;;;;;;;;;;;;;4452378;32;20025;-68
2023/03/06 04:37:43;;;;;;;5.93;4.45;;;;;;;;;;4453064;32;20032;-68
2023/03/06 04:40:19;;;;;;;10.18;4.60;;;;;;;;;;4453434;32;20037;-68
2023/03/06 04:42:44;;;;;;;5.00;4.47;;;;;;;;;;4437341;32;20426;-68
2023/03/06 04:45:09;;;;;;;8.13;5.87;;;;;;;;;;4453002;32;20030;-68
2023/03/06 04:47:35;;;;;;;;;;;;;;;;;;4453295;32;20034;-68
2023/03/06 04:50:00;;;;;;;8.35;6.55;;;;;;;;;;4452000;32;19936;-67
2023/03/06 04:52:25;;;;;;;11.43;7.07;;;;;;;;;;4451336;32;20040;-67
2023/03/06 04:54:50;;;;;;;12.50;6.30;;;;;;;;;;4436927;32;20348;-67
2023/03/06 04:57:16;;;;;;;9.10;6.97;;;;;;;;;;4452974;32;20415;-67
2023/03/06 04:59:41;;;;;;;;;;;;;;;;;;4437921;32;20030;-68
2023/03/06 05:02:06;;;;;;;10.88;6.90;;;;;;;;;;4451548;32;19996;-68
2023/03/06 05:04:31;;;;;;;;;;;;;;;;;;4453132;32;20124;-68
2023/03/06 05:06:56;;;;;;;11.45;7.15;;;;;;;;;;4453266;32;19955;-66
2023/03/06 05:09:21;;;;;;;11.15;7.20;;;;;;;;;;4451528;32;20025;-67
2023/03/06 05:11:47;;;;;;;14.38;8.55;;;;;;;;;;4452881;32;20029;-67
2023/03/06 05:14:12;;;;;;;;;;;;;;;;;;4453681;32;20427;-67
2023/03/06 05:16:37;;;;;;;14.50;8.30;;;;;;;;;;4451472;32;19996;-68
2023/03/06 05:19:02;;;;;;;;;;;;;;;;;;4451851;32;20043;-68
2023/03/06 05:21:27;;;;;;;13.43;8.15;;;;;;;;;;4451463;32;20279;-68
2023/03/06 05:23:52;;;;;;;;;;;;;;;;;;4452776;32;20160;-68
2023/03/06 05:26:17;;;;;;;12.27;6.95;;;;;;;;;;4451882;32;19987;-68
2023/03/06 05:28:43;;;;;;;12.75;7.72;;;;;;;;;;4452428;32;20422;-69
2023/03/06 05:31:08;;;;;;;;;;;;;;;;;;4452925;32;20048;-68
2023/03/06 05:33:34;;;;;;;18.08;10.45;;;;;;;;;;4452279;32;20004;-67
2023/03/06 05:35:59;;;;;;;12.95;8.68;;;;;;;;;;4455633;32;20030;-68
2023/03/06 05:38:24;;;;;;;;;;;;;;;;;;4454640;32;20048;-68
2023/03/06 05:40:50;;;;;;;13.73;10.18;;;;;;;;;;4455029;32;19940;-67
2023/03/06 05:43:15;;;;;;;;;;;;;;;;;;4455143;32;20021;-68
2023/03/06 05:45:40;;;;;;;17.98;11.73;;;;;;;;;;4454266;32;19944;-68
2023/03/06 05:48:05;;;;;;;;;;;;;;;;;;4454174;32;20137;-68
2023/03/06 05:50:30;;;;;;;15.82;10.60;;;;;;;;;;4454629;32;19941;-67
2023/03/06 05:52:55;;;;;;;;;;;;;;;;;;4440101;32;20037;-67
2023/03/06 05:55:22;;;;;;;10.73;5.95;;;;;;;;;;4456336;32;19951;-67
2023/03/06 05:57:48;;;;;;;5.78;3.72;;;;;;;;;;4439866;32;20140;-66
2023/03/06 06:00:13;;;;;;;;;;;;;;;;;;4455718;32;20022;-67
2023/03/06 06:02:38;;;;;;;8.05;2.60;;;;;;;;;;4454564;32;20351;-68
2023/03/06 06:05:04;;;;;;;;;;;;;;;;;;4454130;32;20354;-67
2023/03/06 06:07:29;;;;;;;5.55;2.97;;;;;;;;;;4453666;32;19936;-67
2023/03/06 06:09:54;;;;;;;10.73;3.00;;;;;;;;;;4453254;32;20113;-68
2023/03/06 06:12:19;;;;;;;;;;;;;;;;;;4441774;32;20429;-68
2023/03/06 06:14:44;;;;;;;6.47;3.28;;;;;;;;;;4453910;32;20271;-67
2023/03/06 06:17:11;;;;;;;;;;;;;;;;;;4455178;32;20060;-66
2023/03/06 06:19:37;;;;;;;9.70;4.72;;;;;;;;;;4455103;32;19996;-67
2023/03/06 06:22:02;;;;;;;;;;;;;;;;;;4477213;32;20025;-68
2023/03/06 06:24:28;;;;;;;6.45;3.08;;;;;;;;;;4461066;32;19950;-66
2023/03/06 06:26:53;;;;;;;;;;;;;;;;;;4461656;32;20083;-66
2023/03/06 06:29:18;;;;;;;8.63;3.28;;;;;;;;;;4456708;32;19943;-67
2023/03/06 06:31:43;;;;;;;;;;;;;;;;;;4453892;32;20124;-66
2023/03/06 06:34:11;;;;;;;7.65;3.55;;;;;;;;;;4453952;32;19941;-67
2023/03/06 06:36:36;;;;;;;12.88;4.53;;;;;;;;;;4454622;32;20130;-67
2023/03/06 06:39:02;;;;;;;;;;;;;;;;;;4453056;32;20440;-66
2023/03/06 06:41:28;;;;;;;8.07;3.78;;;;;;;;;;4452150;32;19932;-67
2023/03/06 06:43:53;;;;;;;;;;;;;;;;;;4452565;32;20049;-67
2023/03/06 06:46:19;;;;;;;11.48;4.40;;;;;;;;;;4453458;32;20021;-67
2023/03/06 06:48:44;;;;;;;;;;;;;;;;;;4452906;32;20038;-67
2023/03/06 06:51:09;;;;;;;9.77;3.85;;;;;;;;;;4464345;32;20310;-66
2023/03/06 06:53:34;;;;;;;;;;;;;;;;;;4455728;32;20169;-67
2023/03/06 06:55:59;;;;;;;15.40;4.43;;;;;;;;;;4453673;32;19937;-67
2023/03/06 06:58:24;;;;;;;;;;;;;;;;;;4452903;32;20131;-67
2023/03/06 07:00:50;;;;;;;10.10;4.10;;;;;;;;;;4454745;32;19974;-66
2023/03/06 07:03:15;;;;;;;17.98;5.50;;;;;;;;;;4452575;32;20025;-67
2023/03/06 07:05:40;;;;;;;;;;;;;;;;;;4439796;32;20021;-66
2023/03/06 07:08:06;;;;;;;14.60;4.82;;;;;;;;;;4452851;32;19970;-68
2023/03/06 07:10:31;;;;;;;10.20;3.75;;;;;;;;;;4452423;32;20415;-67
2023/03/06 07:12:56;;;;;;;;;;;;;;;;;;4439309;32;20129;-67
2023/03/06 07:15:21;;;;;;;12.57;6.35;;;;;;;;;;4453377;32;19980;-67
2023/03/06 07:17:46;;;;;;;;;;;;;;;;;;4453136;32;20112;-67
2023/03/06 07:20:12;;;;;;;14.23;4.45;;;;;;;;;;4464449;32;19962;-67
2023/03/06 07:22:37;;;;;;;;;;;;;;;;;;4483692;32;20127;-68
2023/03/06 07:25:03;;;;;;;6.80;3.20;;;;;;;;;;4485737;32;19932;-67
2023/03/06 07:27:28;;;;;;;6.93;3.75;;;;;;;;;;4484723;32;20120;-67
2023/03/06 07:29:53;;;;;;;;;;;;;;;;;;4483181;32;20304;-68
2023/03/06 07:32:19;;;;;;;14.35;4.00;;;;;;;;;;4470122;32;20028;-68
2023/03/06 07:34:45;;;;;;;;;;;;;;;;;;4470677;32;20112;-68
2023/03/06 07:37:10;;;;;;;5.68;3.10;;;;;;;;;;4469149;32;19939;-67
2023/03/06 07:39:35;;;;;;;;;;;;;;;;;;4483279;32;20043;-67
2023/03/06 07:42:01;;;;;;;12.10;4.05;;;;;;;;;;4480902;32;20353;-68
2023/03/06 07:44:26;;;;;;;17.70;4.35;;;;;;;;;;4460353;32;20037;-68
2023/03/06 07:46:51;;;;;;;;;;;;;;;;;;4458742;32;20089;-67
2023/03/06 07:49:16;;;;;;;6.80;3.35;;;;;;;;;;4453173;32;19948;-68
2023/03/06 07:51:41;;;;;;;;;;;;;;;;;;4479654;32;20088;-67
2023/03/06 07:54:07;;;;;;;15.00;3.22;;;;;;;;;;4468681;32;19936;-68
2023/03/06 07:56:33;;;;;;;9.57;2.65;;;;;;;;;;4467461;32;20166;-67
2023/03/06 07:58:59;;;;;;;8.13;3.22;;;;;;;;;;4467406;32;20116;-66
2023/03/06 08:01:24;;;;;;;;;;;;;;;;;;4469372;32;20021;-67
2023/03/06 08:03:49;;;;;;;8.57;3.55;;;;;;;;;;4453545;32;20285;-67
2023/03/06 08:06:14;;;;;;;;;;;;;;;;;;4469345;32;20060;-67
2023/03/06 08:08:41;;;;;;;10.15;2.97;;;;;;;;;;4468509;32;19932;-67
2023/03/06 08:11:06;;;;;;;9.52;2.83;;;;;;;;;;4469206;32;20123;-67
2023/03/06 08:13:32;;;;;;;;;;;;;;;;;;4467965;32;20111;-68
2023/03/06 08:15:58;;;;;;;6.68;2.42;;;;;;;;;;4468753;32;19933;-69
2023/03/06 08:18:23;;;;;;;10.13;2.35;;;;;;;;;;4452913;32;20147;-68
2023/03/06 08:20:48;;;;;;;;;;;;;;;;;;4465419;32;20083;-67
2023/03/06 08:23:14;;;;;;;6.00;2.30;;;;;;;;;;4468466;32;19963;-67
2023/03/06 08:25:39;;;;;;;;;;;;;;;;;;4469586;32;20151;-67
2023/03/06 08:28:04;;;;;;;6.45;2.55;;;;;;;;;;4467370;32;19940;-67
2023/03/06 08:30:29;;;;;;;;;;;;;;;;;;4469045;32;20088;-67
2023/03/06 08:32:54;;;;;;;3.97;2.10;;;;;;;;;;4454472;32;19944;-68
2023/03/06 08:35:19;;;;;;;;;;;;;;;;;;4467740;32;20119;-67
2023/03/06 08:37:44;;;;;;;2.97;2.05;;;;;;;;;;4468876;32;19932;-68
2023/03/06 08:40:10;;;;;;;;;;;;;;;;;;4469540;32;20176;-68
2023/03/06 08:42:35;;;;;;;8.36;1.86;;;;;;;;;;4467748;32;19969;-68
2023/03/06 08:45:00;;;;;;;;;;;;;;;;;;4467653;32;20020;-67
2023/03/06 08:47:25;;;;;;;3.80;1.83;;;;;;;;;;4452792;32;19983;-68
2023/03/06 08:49:50;;;;;;;;;;;;;;;;;;4460295;32;20109;-67
2023/03/06 08:52:15;;;;;;;7.85;2.25;;;;;;;;;;4438533;32;19950;-67
2023/03/06 08:54:41;;;;;;;;;;;;;;;;;;4452396;32;20029;-67
2023/03/06 08:57:06;;;;;;;3.12;2.08;;;;;;;;;;4438663;32;19952;-69
2023/03/06 08:59:31;;;;;;;;;;;;;;;;;;4453250;32;20154;-69
2023/03/06 09:01:56;;;;;;;7.35;1.70;;;;;;;;;;4438820;32;19941;-68
2023/03/06 09:04:21;;;;;;;;;;;;;;;;;;4439124;32;20411;-68
2023/03/06 09:06:47;;;;;;;7.70;2.08;;;;;;;;;;4452074;32;19932;-68
2023/03/06 09:09:12;;;;;;;;;;;;;;;;;;4453049;32;20230;-69
2023/03/06 09:11:37;;;;;;;6.50;2.25;;;;;;;;;;4450878;32;19955;-68
2023/03/06 09:14:03;;;;;;;;;;;;;;;;;;4438824;32;20480;-69
2023/03/06 09:16:28;;;;;;;5.30;2.50;;;;;;;;;;4436695;32;20278;-68
2023/03/06 09:18:54;;;;;;;;;;;;;;;;;;4454538;32;20021;-68
2023/03/06 09:21:20;;;;;;;9.20;3.28;;;;;;;;;;4467077;32;19988;-68
2023/03/06 09:23:45;;;;;;;10.75;3.03;;;;;;;;;;4467965;32;20077;-68
2023/03/06 09:26:11;;;;;;;;;;;;;;;;;;4467242;32;20048;-69
2023/03/06 09:28:37;;;;;;;8.73;2.95;;;;;;;;;;4454216;32;19947;-68
2023/03/06 09:31:21;;;;;;;5.18;1.85;;;;;;;;;;4452300;32;20378;-68
2023/03/06 09:33:47;;;;;;;4.97;1.73;;;;;;;;;;4452409;32;20091;-69
2023/03/06 09:36:14;;;;;;;5.53;2.00;;;;;;;;;;4466254;32;20389;-68
2023/03/06 09:38:39;;;;;;;7.15;1.98;;;;;;;;;;4467866;32;20052;-68
2023/03/06 09:41:05;;;;;;;;;;;;;;;;;;4468517;32;20026;-68
2023/03/06 09:43:34;;;;;;;9.85;3.30;;;;;;;;;;4466729;32;20298;-68
2023/03/06 09:45:59;;;;;;;7.25;2.10;;;;;;;;;;4451998;32;20047;-69
2023/03/06 09:48:24;;;;;;;;;;;;;;;;;;4453241;32;20048;-69
2023/03/06 09:50:53;;;;;;;6.75;2.47;;;;;;;;;;4457430;32;20335;-68
2023/03/06 09:53:31;;;;;;;6.65;2.90;;;;;;;;;;4467506;32;20430;-69
2023/03/06 09:56:00;;;;;;;16.45;3.42;;;;;;;;;;4484017;32;20047;-69
2023/03/06 09:58:27;;;;;;;4.87;2.85;;;;;;;;;;4482057;32;20076;-68
2023/03/06 10:00:58;;;;;;;7.15;2.65;;;;;;;;;;4481794;32;20020;-68
2023/03/06 10:03:23;;;;;;;8.25;3.45;;;;;;;;;;4483558;32;20056;-69
2023/03/06 10:05:48;;;;;;;;;;;;;;;;;;4483983;32;20073;-67
2023/03/06 10:08:22;;;;;;;14.25;3.42;;;;;;;;;;4481731;32;20382;-68
2023/03/06 10:11:08;;;;;;;9.15;3.95;;;;;;;;;;4484162;32;20145;-69
2023/03/06 10:13:36;;;;;;;4.70;3.10;;;;;;;;;;4484099;32;20060;-68
2023/03/06 10:16:10;;;;;;;8.40;3.55;;;;;;;;;;4481768;32;20466;-68
2023/03/06 10:18:37;;;;;;;11.23;4.07;;;;;;;;;;4459840;32;20047;-68
2023/03/06 10:21:04;;;;;;;6.22;3.35;;;;;;;;;;4455121;32;20161;-68
2023/03/06 10:23:39;;;;;;;7.78;2.92;;;;;;;;;;4455444;32;20055;-68
2023/03/06 10:26:07;;;;;;;6.80;3.75;;;;;;;;;;4454050;32;20358;-68
2023/03/06 10:28:38;;;;;;;10.40;3.92;;;;;;;;;;4453652;32;20093;-68
2023/03/06 10:31:10;;;;;;;6.25;3.85;;;;;;;;;;4453726;32;20056;-69
2023/03/06 10:33:49;;;;;;;5.50;3.33;;;;;;;;;;4453127;32;20047;-69
2023/03/06 10:36:15;;;;;;;7.72;4.20;;;;;;;;;;4454040;32;20326;-69
2023/03/06 10:38:40;;;;;;;;;;;;;;;;;;4454918;32;20076;-69
2023/03/06 10:41:07;;;;;;;6.85;4.95;;;;;;;;;;4452977;32;19932;-68
2023/03/06 10:43:32;;;;;;;6.87;4.65;;;;;;;;;;4453606;32;20074;-69
2023/03/06 10:45:58;;;;;;;;;;;;;;;;;;4455037;32;20475;-69
2023/03/06 10:48:24;;;;;;;9.48;5.47;;;;;;;;;;4471918;32;19963;-69
2023/03/06 10:50:51;;;;;;;10.38;6.65;;;;;;;;;;4484303;32;20067;-69
2023/03/06 10:53:24;;;;;;;16.98;7.15;;;;;;;;;;4471613;32;20087;-68
2023/03/06 10:55:52;;;;;;;12.90;8.00;;;;;;;;;;4484847;32;20033;-68
2023/03/06 10:58:18;;;;;;;12.02;5.65;;;;;;;;;;4486250;32;20099;-69
2023/03/06 11:00:44;;;;;;;11.55;5.32;;;;;;;;;;4485888;32;20060;-69
2023/03/06 11:03:09;;;;;;;;;;;;;;;;;;4485843;32;20424;-69
2023/03/06 11:05:34;;;;;;;7.57;4.72;;;;;;;;;;4469702;32;20265;-68
2023/03/06 11:07:59;;;;;;;;;;;;;;;;;;4484505;32;20137;-69
2023/03/06 11:10:25;;;;;;;11.35;5.97;;;;;;;;;;4471366;32;19950;-69
2023/03/06 11:13:01;;;;;;;11.73;7.03;;;;;;;;;;4485305;32;20051;-68
2023/03/06 11:15:27;;;;;;;16.23;6.55;;;;;;;;;;4484211;32;20029;-69
2023/03/06 11:17:52;;;;;;;;;;;;;;;;;;4467873;32;20055;-68
2023/03/06 11:20:19;;;;;;;12.55;6.90;;;;;;;;;;4453846;32;19947;-69
2023/03/06 11:22:46;;;;;;;13.50;7.40;;;;;;;;;;4438526;32;20331;-68
2023/03/06 11:25:12;;;;;;;10.60;6.43;;;;;;;;;;4452870;32;20073;-69
2023/03/06 11:27:41;;;;;;;10.45;6.00;;;;;;;;;;4438753;32;20064;-69
2023/03/06 11:30:16;;;;;;;12.18;6.97;;;;;;;;;;4453622;32;20033;-68
2023/03/06 11:32:41;;;;;;;13.88;7.70;;;;;;;;;;4453608;32;20077;-68
2023/03/06 11:35:06;;;;;;;;;;;;;;;;;;4454706;32;20025;-68
2023/03/06 11:37:46;;;;;;;10.40;7.30;;;;;;;;;;4452998;32;19944;-69
2023/03/06 11:40:27;;;;;;;12.43;7.68;;;;;;;;;;4452719;32;20048;-68
2023/03/06 11:43:01;;;;;;;10.95;7.93;;;;;;;;;;4454287;32;20025;-69
2023/03/06 11:45:26;;;;;;;14.02;8.98;;;;;;;;;;4454057;32;20049;-68
2023/03/06 11:47:51;;;;;;;;;;;;;;;;;;4460467;32;20028;-68
2023/03/06 11:50:49;;;;;;;17.48;8.57;;;;;;;;;;4467937;32;20031;-67
2023/03/06 11:53:19;;;;;;;12.40;8.30;;;;;;;;;;4417279;32;20045;-69
2023/03/06 11:55:59;;;;;;;12.30;8.77;;;;;;;;;;4453518;32;20429;-67
2023/03/06 11:58:39;;;;;;;11.57;6.85;;;;;;;;;;4451212;32;20418;-70
2023/03/06 12:01:27;;;;;;;12.37;6.70;;;;;;;;;;4446793;32;20450;-68
2023/03/06 12:03:52;;;;;;;15.32;7.90;;;;;;;;;;4460211;32;20059;-67
2023/03/06 12:06:17;;;;;;;;;;;;;;;;;;4451936;32;20033;-69
2023/03/06 12:08:43;;;;;;;10.35;6.60;;;;;;;;;;4467570;32;19932;-69
2023/03/06 12:11:08;;;;;;;;;;;;;;;;;;4469217;32;20132;-69
2023/03/06 12:13:36;;;;;;;15.45;8.10;;;;;;;;;;4468852;32;19936;-68
2023/03/06 12:16:25;;;;;;;13.85;7.68;;;;;;;;;;4467321;32;20214;-69
2023/03/06 12:18:55;;;;;;;11.45;7.28;;;;;;;;;;4462119;32;20059;-68
2023/03/06 12:21:25;;;;;;;10.93;7.30;;;;;;;;;;4457788;32;20029;-68
2023/03/06 12:24:06;;;;;;;9.57;7.00;;;;;;;;;;4467062;32;20102;-69
2023/03/06 12:26:38;;;;;;;12.57;6.95;;;;;;;;;;4468604;32;20052;-69
2023/03/06 12:29:09;;;;;;;15.63;6.70;;;;;;;;;;4452130;32;20123;-68
2023/03/06 12:31:44;;;;;;;13.98;5.80;;;;;;;;;;4453326;32;20024;-68
2023/03/06 12:34:13;;;;;;;11.57;5.43;;;;;;;;;;4467746;32;20043;-69
2023/03/06 12:36:57;;;;;;;9.30;6.25;;;;;;;;;;4467374;32;20053;-69
2023/03/06 12:39:22;;;;;;;9.68;5.80;;;;;;;;;;4452748;32;20059;-69
2023/03/06 12:41:48;;;;;;;;;;;;;;;;;;4466985;32;20048;-69
2023/03/06 12:44:19;;;;;;;9.93;5.20;;;;;;;;;;4467026;32;19987;-78
2023/03/06 12:46:48;;;;;;;10.43;5.50;;;;;;;;;;4453659;32;20029;-76
2023/03/06 12:49:20;;;;;;;7.03;4.80;;;;;;;;;;4439194;32;20061;-74
2023/03/06 12:51:45;;;;;;;10.80;4.70;;;;;;;;;;4459576;32;20068;-74
2023/03/06 12:54:10;;;;;;;;;;;;;;;;;;4475387;32;20028;-75
2023/03/06 12:56:37;;;;;;;10.35;5.68;;;;;;;;;;4447253;32;19955;-74
2023/03/06 12:59:02;;;;;;;8.63;5.15;;;;;;;;;;4451488;32;20144;-75
2023/03/06 13:01:28;;;;;;;;;;;;;;;;;;4450888;32;20381;-74
2023/03/06 13:03:58;;;;;;;10.13;6.40;;;;;;;;;;4451183;32;20318;-75
2023/03/06 13:06:43;;;;;;;13.70;6.93;;;;;;;;;;4451867;32;20056;-75
2023/03/06 13:09:18;;;;;;;10.45;6.03;;;;;;;;;;4450014;32;20029;-80
2023/03/06 13:11:49;;;;;;;11.35;5.93;;;;;;;;;;4451416;32;20068;-76
2023/03/06 13:14:20;;;;;;;10.35;6.40;;;;;;;;;;4439711;32;20131;-75
2023/03/06 13:16:45;;;;;;;10.35;6.85;;;;;;;;;;4456381;32;20029;-75
2023/03/06 13:19:10;;;;;;;;;;;;;;;;;;4459275;32;20059;-75
2023/03/06 13:21:43;;;;;;;9.07;4.82;;;;;;;;;;4446220;32;19984;-74
2023/03/06 13:24:20;;;;;;;5.80;4.30;;;;;;;;;;4465754;32;20108;-75
2023/03/06 13:26:45;;;;;;;7.53;4.45;;;;;;;;;;4457996;32;20079;-76
2023/03/06 13:29:10;;;;;;;;;;;;;;;;;;4458286;32;20493;-75
2023/03/06 13:31:35;;;;;;;7.95;5.47;;;;;;;;;;4466897;32;19959;-74
2023/03/06 13:34:00;;;;;;;;;;;;;;;;;;4466810;32;20203;-75
2023/03/06 13:36:32;;;;;;;9.48;6.22;;;;;;;;;;4453690;32;19940;-74
2023/03/06 13:38:59;;;;;;;14.13;6.32;;;;;;;;;;4449509;32;20173;-75
2023/03/06 13:41:29;;;;;;;10.40;6.35;;;;;;;;;;4450639;32;20114;-75
2023/03/06 13:43:56;;;;;;;10.32;6.87;;;;;;;;;;4436995;32;20029;-75
2023/03/06 13:46:26;;;;;;;9.27;6.80;;;;;;;;;;4451652;32;20101;-75
2023/03/06 13:49:06;;;;;;;11.65;6.78;;;;;;;;;;4452509;32;20033;-75
2023/03/06 13:52:04;;;;;;;9.05;6.35;;;;;;;;;;4451108;32;20087;-75
2023/03/06 13:54:55;;;;;;;12.07;6.47;;;;;;;;;;4397755;32;20071;-76
2023/03/06 13:57:26;;;;;;;12.15;6.90;;;;;;;;;;4454559;32;20059;-75
2023/03/06 14:00:16;;;;;;;10.50;6.20;;;;;;;;;;4455725;32;20029;-74
2023/03/06 14:03:00;;;;;;;8.93;5.45;;;;;;;;;;4455587;32;20021;-75
2023/03/06 14:05:39;;;;;;;10.88;6.60;;;;;;;;;;4464542;32;20033;-75
2023/03/06 14:08:10;;;;;;;10.32;6.55;;;;;;;;;;4469590;32;20047;-75
2023/03/06 14:10:37;;;;;;;9.90;7.03;;;;;;;;;;4470472;32;20028;-75
2023/03/06 14:13:22;;;;;;;10.35;6.35;;;;;;;;;;4471776;32;20415;-75
2023/03/06 14:15:49;;;;;;;11.45;7.43;;;;;;;;;;4484135;32;20080;-74
2023/03/06 14:18:26;;;;;;;9.65;6.37;;;;;;;;;;4463576;32;20095;-76
2023/03/06 14:21:00;;;;;;;10.30;6.93;;;;;;;;;;4452654;32;20067;-75
2023/03/06 14:23:25;;;;;;;9.68;6.78;;;;;;;;;;4454036;32;20093;-75
2023/03/06 14:25:50;;;;;;;;;;;;;;;;;;4454736;32;20408;-75
2023/03/06 14:28:23;;;;;;;9.50;6.82;;;;;;;;;;4454320;32;19932;-75
2023/03/06 14:30:49;;;;;;;12.10;5.70;;;;;;;;;;4452132;32;20116;-76
2023/03/06 14:33:23;;;;;;;12.90;6.45;;;;;;;;;;4454577;32;20029;-73
2023/03/06 14:35:50;;;;;;;10.55;6.70;;;;;;;;;;4452753;32;20029;-74
2023/03/06 14:38:15;;;;;;;9.48;6.53;;;;;;;;;;4459706;32;20033;-74
2023/03/06 14:40:40;;;;;;;;;;;;;;;;;;4469548;32;20025;-74
2023/03/06 14:43:11;;;;;;;14.07;6.85;;;;;;;;;;4470690;32;19936;-74
2023/03/06 14:45:46;;;;;;;10.45;5.32;;;;;;;;;;4469649;32;20020;-73
2023/03/06 14:48:13;;;;;;;9.23;4.53;;;;;;;;;;4457280;32;20033;-73
2023/03/06 14:50:38;;;;;;;8.18;4.68;;;;;;;;;;4484514;32;20435;-74
2023/03/06 14:53:03;;;;;;;;;;;;;;;;;;4484822;32;20043;-74
2023/03/06 14:55:31;;;;;;;11.23;5.43;;;;;;;;;;4477063;32;20050;-74
2023/03/06 14:58:06;;;;;;;14.32;5.80;;;;;;;;;;4454503;32;20059;-74
2023/03/06 15:00:36;;;;;;;9.98;5.18;;;;;;;;;;4470006;32;20427;-74
2023/03/06 15:03:04;;;;;;;10.65;5.50;;;;;;;;;;4470060;32;20088;-79
2023/03/06 15:07:32;;;;;;;9.18;5.53;;;;;;;;;;4496757;31;20050;-76
2023/03/06 15:09:57;;;;;;;;;;;;;;;;;;4480529;32;20033;-77
2023/03/06 15:12:22;;;;;;;9.23;5.55;;;;;;;;;;4472238;32;19932;-77